Portada
METAR-TAF:

METAR-TAF

Aeroports :

Phnom Penh, Cambodja

latitud: 11-33N, longitud: 104-51E, altitud: 10 m

Observació

L'informe es va fer fa 38 minuts, a les 11:30 UTC
Vent calma
Temperatura 32°C
Humitat 52%
Pressió 1011 hPa
Visibilitat 10 km o més
Núvols disperses a una alçada de 1500 ft
Núvols disperses a una alçada de 4000 ft

METAR: VDPP 171130Z 00000KT 9999 SCT015 SCT040 32/21 Q1011

Hora: 19:08 (12:08 UTC)

Pronòstic

L'informe es va fer fa 1 hora i 8 minuts, a les 11:00 UTC
Pronòstic vàlid del 17 a les 12 UTC al 18 a les 06 UTC
Vent 9 kt del Sud
Visibilitat 10 km o més
Núvols disperses a una alçada de 1700 ft
Núvols disperses a una alçada de 4000 ft
Temporalment
l' 17 a les 12 UTC al 17 a les 16 UTC
Visibilitat: 5000 m
Núvols disperses a una alçada de 1500 ft
Escasses núvols a una alçada de 1700 ft, Cumulonimbus.
Núvols disperses a una alçada de 4000 ft
xàfecs de pluja

TAF: VDPP 171100Z 1712/1806 18009KT 9999 SCT017 SCT040 TEMPO 1712/1716 5000 SHRA SCT015 FEW017CB SCT040

Observacions i pronòstics meteorològics de més de 4000 aeroports (METAR i TAF).

Les estacions disponibles són els punts grocs i vermells al mapa.

Posi el ratolí al punt desitjat per veure el nom de l'estació.

Feu clic per veure les observacions i els pronòstics meteorològics.

Per canviar el mapa: feu clic els botons verds amb una creu de color negre per apropar; al botó verd amb un guió per allunyar la imatge; o en les fletxes verdes per a mapes adjacents.


METAR-TAF: